Terminal Aerodrome Forecast
Issued by NWS

Home | Current Version | Previous Version | Text Only | Print | Product List | Glossary On
Versions: 1 2 3 4 5 6 7 8 9 10 11 12 13 14 15 16
000
FTAK31 PAJN 220528
TAFAKT
TAF
PAKT 220528Z 2206/2306 VRB04KT P6SM -SHRA VCTS OVC027CB
     FM221000 16004KT P6SM VCSH OVC025
     FM221500 14010KT 5SM -SHRA BR BKN025 OVC040
     FM222300 15008KT 6SM -SHRA BR OVC025
     FM230300 15008KT 4SM -SHRA BR BKN015 OVC025
      AMD LTD TO CLD VIS AND WIND 2206/2215=

USA.gov is the U.S. government's official web portal to all federal, state and local government web resources and services.